sensor_id;sensor_type;location;lat;lon;timestamp;P1;durP1;ratioP1;P2;durP2;ratioP2
37805;SDS011;25082;50.870;0.022;2022-10-31T00:02:02;4.07;;;1.15;;
37805;SDS011;25082;50.870;0.022;2022-10-31T00:04:28;4.63;;;1.50;;
37805;SDS011;25082;50.870;0.022;2022-10-31T00:06:54;7.13;;;1.77;;
37805;SDS011;25082;50.870;0.022;2022-10-31T00:09:19;6.40;;;1.65;;
37805;SDS011;25082;50.870;0.022;2022-10-31T00:11:45;4.35;;;1.58;;
37805;SDS011;25082;50.870;0.022;2022-10-31T00:14:11;4.25;;;2.00;;
37805;SDS011;25082;50.870;0.022;2022-10-31T00:16:36;4.38;;;1.52;;
37805;SDS011;25082;50.870;0.022;2022-10-31T00:19:03;6.80;;;1.83;;
37805;SDS011;25082;50.870;0.022;2022-10-31T00:21:31;3.95;;;1.17;;
37805;SDS011;25082;50.870;0.022;2022-10-31T00:23:57;2.80;;;1.15;;
37805;SDS011;25082;50.870;0.022;2022-10-31T00:26:24;6.72;;;1.65;;
37805;SDS011;25082;50.870;0.022;2022-10-31T00:28:51;5.93;;;1.55;;
37805;SDS011;25082;50.870;0.022;2022-10-31T00:31:17;8.27;;;1.80;;
37805;SDS011;25082;50.870;0.022;2022-10-31T00:33:43;2.28;;;1.10;;
37805;SDS011;25082;50.870;0.022;2022-10-31T00:36:13;6.20;;;1.48;;
37805;SDS011;25082;50.870;0.022;2022-10-31T00:38:40;4.75;;;1.20;;
37805;SDS011;25082;50.870;0.022;2022-10-31T00:41:06;6.75;;;1.80;;
37805;SDS011;25082;50.870;0.022;2022-10-31T00:43:32;8.05;;;1.85;;
37805;SDS011;25082;50.870;0.022;2022-10-31T00:45:58;5.75;;;1.60;;
37805;SDS011;25082;50.870;0.022;2022-10-31T00:48:24;4.22;;;1.45;;
37805;SDS011;25082;50.870;0.022;2022-10-31T00:50:50;7.28;;;1.70;;
37805;SDS011;25082;50.870;0.022;2022-10-31T00:53:15;5.13;;;1.48;;
37805;SDS011;25082;50.870;0.022;2022-10-31T00:55:41;5.93;;;1.48;;
37805;SDS011;25082;50.870;0.022;2022-10-31T00:58:07;6.13;;;1.60;;
37805;SDS011;25082;50.870;0.022;2022-10-31T01:00:32;5.40;;;1.35;;
37805;SDS011;25082;50.870;0.022;2022-10-31T01:02:58;6.90;;;1.90;;
37805;SDS011;25082;50.870;0.022;2022-10-31T01:05:24;5.95;;;1.98;;
37805;SDS011;25082;50.870;0.022;2022-10-31T01:07:49;4.65;;;1.52;;
37805;SDS011;25082;50.870;0.022;2022-10-31T01:10:15;4.35;;;1.40;;
37805;SDS011;25082;50.870;0.022;2022-10-31T01:12:43;4.90;;;1.55;;
37805;SDS011;25082;50.870;0.022;2022-10-31T01:15:11;4.53;;;1.30;;
37805;SDS011;25082;50.870;0.022;2022-10-31T01:17:38;5.38;;;1.70;;
37805;SDS011;25082;50.870;0.022;2022-10-31T01:20:05;4.35;;;1.48;;
37805;SDS011;25082;50.870;0.022;2022-10-31T01:22:32;5.65;;;1.70;;
37805;SDS011;25082;50.870;0.022;2022-10-31T01:24:58;5.72;;;2.15;;
37805;SDS011;25082;50.870;0.022;2022-10-31T01:27:24;7.28;;;1.63;;
37805;SDS011;25082;50.870;0.022;2022-10-31T01:29:49;8.85;;;2.00;;
37805;SDS011;25082;50.870;0.022;2022-10-31T01:32:15;4.70;;;1.55;;
37805;SDS011;25082;50.870;0.022;2022-10-31T01:34:41;5.45;;;1.63;;
37805;SDS011;25082;50.870;0.022;2022-10-31T01:37:07;6.63;;;1.40;;
37805;SDS011;25082;50.870;0.022;2022-10-31T01:39:32;3.20;;;1.40;;
37805;SDS011;25082;50.870;0.022;2022-10-31T01:41:58;5.78;;;1.80;;
37805;SDS011;25082;50.870;0.022;2022-10-31T01:52:08;3.95;;;1.60;;
37805;SDS011;25082;50.870;0.022;2022-10-31T01:54:39;7.75;;;1.50;;
37805;SDS011;25082;50.870;0.022;2022-10-31T01:57:08;4.65;;;1.48;;
37805;SDS011;25082;50.870;0.022;2022-10-31T01:59:39;6.18;;;1.60;;
37805;SDS011;25082;50.870;0.022;2022-10-31T02:02:10;5.13;;;1.65;;
37805;SDS011;25082;50.870;0.022;2022-10-31T02:04:37;6.07;;;1.60;;
37805;SDS011;25082;50.870;0.022;2022-10-31T02:07:07;6.10;;;1.85;;
37805;SDS011;25082;50.870;0.022;2022-10-31T02:09:43;7.07;;;1.70;;
37805;SDS011;25082;50.870;0.022;2022-10-31T02:12:11;5.00;;;1.65;;
37805;SDS011;25082;50.870;0.022;2022-10-31T02:14:37;7.00;;;1.70;;
37805;SDS011;25082;50.870;0.022;2022-10-31T02:17:03;5.35;;;1.30;;
37805;SDS011;25082;50.870;0.022;2022-10-31T02:22:09;5.93;;;1.65;;
37805;SDS011;25082;50.870;0.022;2022-10-31T02:25:01;3.20;;;1.23;;
37805;SDS011;25082;50.870;0.022;2022-10-31T02:27:51;3.58;;;1.23;;
37805;SDS011;25082;50.870;0.022;2022-10-31T02:36:11;7.80;;;1.77;;
37805;SDS011;25082;50.870;0.022;2022-10-31T02:41:31;5.60;;;1.50;;
37805;SDS011;25082;50.870;0.022;2022-10-31T02:46:48;6.78;;;1.92;;
37805;SDS011;25082;50.870;0.022;2022-10-31T02:49:32;5.25;;;1.67;;
37805;SDS011;25082;50.870;0.022;2022-10-31T02:52:21;4.47;;;1.67;;
37805;SDS011;25082;50.870;0.022;2022-10-31T02:54:51;8.55;;;2.03;;
37805;SDS011;25082;50.870;0.022;2022-10-31T02:57:20;6.70;;;1.58;;
37805;SDS011;25082;50.870;0.022;2022-10-31T02:59:53;5.18;;;1.67;;
37805;SDS011;25082;50.870;0.022;2022-10-31T03:02:33;6.78;;;2.03;;
37805;SDS011;25082;50.870;0.022;2022-10-31T03:13:43;5.15;;;1.73;;
37805;SDS011;25082;50.870;0.022;2022-10-31T03:16:13;4.80;;;1.55;;
37805;SDS011;25082;50.870;0.022;2022-10-31T03:18:40;6.30;;;1.58;;
37805;SDS011;25082;50.870;0.022;2022-10-31T03:21:20;6.22;;;1.67;;
37805;SDS011;25082;50.870;0.022;2022-10-31T03:23:59;4.60;;;1.48;;
37805;SDS011;25082;50.870;0.022;2022-10-31T03:26:27;5.85;;;1.30;;
37805;SDS011;25082;50.870;0.022;2022-10-31T03:29:03;8.55;;;2.15;;
37805;SDS011;25082;50.870;0.022;2022-10-31T03:31:39;7.57;;;1.85;;
37805;SDS011;25082;50.870;0.022;2022-10-31T03:34:18;3.55;;;1.15;;
37805;SDS011;25082;50.870;0.022;2022-10-31T03:36:46;5.00;;;1.52;;
37805;SDS011;25082;50.870;0.022;2022-10-31T03:39:15;4.68;;;1.30;;
37805;SDS011;25082;50.870;0.022;2022-10-31T03:41:46;5.05;;;1.45;;
37805;SDS011;25082;50.870;0.022;2022-10-31T03:44:24;6.55;;;1.50;;
37805;SDS011;25082;50.870;0.022;2022-10-31T03:46:53;6.95;;;1.55;;
37805;SDS011;25082;50.870;0.022;2022-10-31T03:49:19;6.65;;;1.80;;
37805;SDS011;25082;50.870;0.022;2022-10-31T03:51:47;3.67;;;1.35;;
37805;SDS011;25082;50.870;0.022;2022-10-31T04:00:32;8.20;;;1.92;;
37805;SDS011;25082;50.870;0.022;2022-10-31T04:03:05;5.30;;;1.65;;
37805;SDS011;25082;50.870;0.022;2022-10-31T04:05:42;4.40;;;1.75;;
37805;SDS011;25082;50.870;0.022;2022-10-31T04:08:12;6.30;;;1.50;;
37805;SDS011;25082;50.870;0.022;2022-10-31T04:10:41;7.45;;;1.90;;
37805;SDS011;25082;50.870;0.022;2022-10-31T04:13:13;5.63;;;1.65;;
37805;SDS011;25082;50.870;0.022;2022-10-31T04:15:42;7.63;;;1.50;;
37805;SDS011;25082;50.870;0.022;2022-10-31T04:18:09;4.85;;;1.25;;
37805;SDS011;25082;50.870;0.022;2022-10-31T04:20:36;4.55;;;1.35;;
37805;SDS011;25082;50.870;0.022;2022-10-31T04:23:04;5.20;;;1.17;;
37805;SDS011;25082;50.870;0.022;2022-10-31T04:25:33;10.15;;;2.30;;
37805;SDS011;25082;50.870;0.022;2022-10-31T04:27:59;6.45;;;1.55;;
37805;SDS011;25082;50.870;0.022;2022-10-31T04:30:24;5.95;;;1.88;;
37805;SDS011;25082;50.870;0.022;2022-10-31T04:32:50;5.40;;;2.15;;
37805;SDS011;25082;50.870;0.022;2022-10-31T04:35:16;6.63;;;1.73;;
37805;SDS011;25082;50.870;0.022;2022-10-31T04:37:41;6.82;;;1.67;;
37805;SDS011;25082;50.870;0.022;2022-10-31T04:40:07;3.60;;;1.20;;
37805;SDS011;25082;50.870;0.022;2022-10-31T04:42:33;3.45;;;1.25;;
37805;SDS011;25082;50.870;0.022;2022-10-31T04:44:59;5.45;;;1.50;;
37805;SDS011;25082;50.870;0.022;2022-10-31T04:47:25;3.53;;;1.17;;
37805;SDS011;25082;50.870;0.022;2022-10-31T04:49:50;5.22;;;1.70;;
37805;SDS011;25082;50.870;0.022;2022-10-31T04:52:16;3.95;;;1.55;;
37805;SDS011;25082;50.870;0.022;2022-10-31T04:54:42;6.13;;;1.48;;
37805;SDS011;25082;50.870;0.022;2022-10-31T04:57:07;4.22;;;1.40;;
37805;SDS011;25082;50.870;0.022;2022-10-31T04:59:33;6.75;;;1.65;;
37805;SDS011;25082;50.870;0.022;2022-10-31T05:01:59;7.03;;;2.00;;
37805;SDS011;25082;50.870;0.022;2022-10-31T05:04:24;2.78;;;1.27;;
37805;SDS011;25082;50.870;0.022;2022-10-31T05:06:50;6.55;;;1.65;;
37805;SDS011;25082;50.870;0.022;2022-10-31T05:09:16;8.23;;;1.52;;
37805;SDS011;25082;50.870;0.022;2022-10-31T05:11:41;5.60;;;1.30;;
37805;SDS011;25082;50.870;0.022;2022-10-31T05:14:07;5.63;;;1.70;;
37805;SDS011;25082;50.870;0.022;2022-10-31T05:16:33;4.43;;;1.50;;
37805;SDS011;25082;50.870;0.022;2022-10-31T05:18:58;6.15;;;1.00;;
37805;SDS011;25082;50.870;0.022;2022-10-31T05:21:24;6.63;;;1.20;;
37805;SDS011;25082;50.870;0.022;2022-10-31T05:23:50;5.18;;;1.40;;
37805;SDS011;25082;50.870;0.022;2022-10-31T05:26:17;4.47;;;1.63;;
37805;SDS011;25082;50.870;0.022;2022-10-31T05:28:42;2.97;;;1.38;;
37805;SDS011;25082;50.870;0.022;2022-10-31T05:31:08;5.85;;;1.50;;
37805;SDS011;25082;50.870;0.022;2022-10-31T05:33:34;6.25;;;1.92;;
37805;SDS011;25082;50.870;0.022;2022-10-31T05:35:59;5.35;;;1.55;;
37805;SDS011;25082;50.870;0.022;2022-10-31T05:38:25;7.82;;;1.63;;
37805;SDS011;25082;50.870;0.022;2022-10-31T05:40:54;3.97;;;1.40;;
37805;SDS011;25082;50.870;0.022;2022-10-31T05:43:23;6.00;;;1.30;;
37805;SDS011;25082;50.870;0.022;2022-10-31T05:45:51;4.07;;;1.55;;
37805;SDS011;25082;50.870;0.022;2022-10-31T05:48:18;3.45;;;1.17;;
37805;SDS011;25082;50.870;0.022;2022-10-31T05:50:44;5.43;;;1.67;;
37805;SDS011;25082;50.870;0.022;2022-10-31T05:53:10;4.65;;;1.40;;
37805;SDS011;25082;50.870;0.022;2022-10-31T05:55:35;5.20;;;1.00;;
37805;SDS011;25082;50.870;0.022;2022-10-31T05:58:01;4.40;;;1.30;;
37805;SDS011;25082;50.870;0.022;2022-10-31T06:00:27;7.68;;;1.80;;
37805;SDS011;25082;50.870;0.022;2022-10-31T06:03:03;5.90;;;1.77;;
37805;SDS011;25082;50.870;0.022;2022-10-31T06:05:30;5.72;;;1.40;;
37805;SDS011;25082;50.870;0.022;2022-10-31T06:07:56;5.50;;;1.80;;
37805;SDS011;25082;50.870;0.022;2022-10-31T06:10:22;6.38;;;1.20;;
37805;SDS011;25082;50.870;0.022;2022-10-31T06:12:48;3.75;;;1.40;;
37805;SDS011;25082;50.870;0.022;2022-10-31T06:15:14;5.03;;;1.50;;
37805;SDS011;25082;50.870;0.022;2022-10-31T06:17:40;6.47;;;1.63;;
37805;SDS011;25082;50.870;0.022;2022-10-31T06:20:06;7.13;;;1.38;;
37805;SDS011;25082;50.870;0.022;2022-10-31T06:22:33;3.05;;;1.23;;
37805;SDS011;25082;50.870;0.022;2022-10-31T06:24:59;4.53;;;1.40;;
37805;SDS011;25082;50.870;0.022;2022-10-31T06:27:24;5.10;;;1.52;;
37805;SDS011;25082;50.870;0.022;2022-10-31T06:29:50;3.90;;;1.52;;
37805;SDS011;25082;50.870;0.022;2022-10-31T06:32:16;6.72;;;1.48;;
37805;SDS011;25082;50.870;0.022;2022-10-31T06:34:43;7.05;;;1.42;;
37805;SDS011;25082;50.870;0.022;2022-10-31T06:37:12;3.72;;;1.33;;
37805;SDS011;25082;50.870;0.022;2022-10-31T06:39:37;5.72;;;1.42;;
37805;SDS011;25082;50.870;0.022;2022-10-31T06:42:03;4.72;;;1.20;;
37805;SDS011;25082;50.870;0.022;2022-10-31T06:44:30;3.88;;;1.50;;
37805;SDS011;25082;50.870;0.022;2022-10-31T06:46:56;6.13;;;1.48;;
37805;SDS011;25082;50.870;0.022;2022-10-31T06:49:21;5.57;;;1.42;;
37805;SDS011;25082;50.870;0.022;2022-10-31T06:51:47;5.45;;;1.65;;
37805;SDS011;25082;50.870;0.022;2022-10-31T06:54:14;8.95;;;1.85;;
37805;SDS011;25082;50.870;0.022;2022-10-31T06:56:40;4.68;;;1.58;;
37805;SDS011;25082;50.870;0.022;2022-10-31T06:59:05;6.97;;;1.63;;
37805;SDS011;25082;50.870;0.022;2022-10-31T07:01:31;3.80;;;1.17;;
37805;SDS011;25082;50.870;0.022;2022-10-31T07:03:57;5.43;;;1.30;;
37805;SDS011;25082;50.870;0.022;2022-10-31T07:06:23;3.22;;;1.35;;
37805;SDS011;25082;50.870;0.022;2022-10-31T07:08:49;2.92;;;0.98;;
37805;SDS011;25082;50.870;0.022;2022-10-31T07:11:14;2.80;;;1.17;;
37805;SDS011;25082;50.870;0.022;2022-10-31T07:13:40;3.88;;;1.20;;
37805;SDS011;25082;50.870;0.022;2022-10-31T07:16:06;4.45;;;1.35;;
37805;SDS011;25082;50.870;0.022;2022-10-31T07:18:32;7.15;;;1.52;;
37805;SDS011;25082;50.870;0.022;2022-10-31T07:20:59;4.07;;;1.17;;
37805;SDS011;25082;50.870;0.022;2022-10-31T07:23:24;5.18;;;1.35;;
37805;SDS011;25082;50.870;0.022;2022-10-31T07:25:57;5.40;;;1.60;;
37805;SDS011;25082;50.870;0.022;2022-10-31T07:28:23;4.55;;;1.15;;
37805;SDS011;25082;50.870;0.022;2022-10-31T07:30:52;4.60;;;1.13;;
37805;SDS011;25082;50.870;0.022;2022-10-31T07:33:18;6.00;;;1.60;;
37805;SDS011;25082;50.870;0.022;2022-10-31T07:35:44;1.92;;;0.93;;
37805;SDS011;25082;50.870;0.022;2022-10-31T07:38:11;4.88;;;1.48;;
37805;SDS011;25082;50.870;0.022;2022-10-31T07:40:38;5.18;;;1.35;;
37805;SDS011;25082;50.870;0.022;2022-10-31T07:43:04;4.80;;;1.48;;
37805;SDS011;25082;50.870;0.022;2022-10-31T07:45:31;5.75;;;1.10;;
37805;SDS011;25082;50.870;0.022;2022-10-31T07:47:56;5.32;;;1.63;;
37805;SDS011;25082;50.870;0.022;2022-10-31T07:50:23;6.75;;;1.10;;
37805;SDS011;25082;50.870;0.022;2022-10-31T07:55:47;4.80;;;1.50;;
37805;SDS011;25082;50.870;0.022;2022-10-31T07:58:16;4.53;;;1.63;;
37805;SDS011;25082;50.870;0.022;2022-10-31T08:00:43;3.78;;;1.13;;
37805;SDS011;25082;50.870;0.022;2022-10-31T08:03:11;3.83;;;1.08;;
37805;SDS011;25082;50.870;0.022;2022-10-31T08:05:41;6.13;;;1.20;;
37805;SDS011;25082;50.870;0.022;2022-10-31T08:08:09;5.40;;;1.60;;
37805;SDS011;25082;50.870;0.022;2022-10-31T08:10:35;4.80;;;1.10;;
37805;SDS011;25082;50.870;0.022;2022-10-31T08:13:05;6.03;;;1.40;;
37805;SDS011;25082;50.870;0.022;2022-10-31T08:15:33;5.22;;;1.20;;
37805;SDS011;25082;50.870;0.022;2022-10-31T08:18:03;4.15;;;1.25;;
37805;SDS011;25082;50.870;0.022;2022-10-31T08:20:29;4.00;;;1.10;;
37805;SDS011;25082;50.870;0.022;2022-10-31T08:22:59;4.53;;;1.00;;
37805;SDS011;25082;50.870;0.022;2022-10-31T08:25:26;2.40;;;1.00;;
37805;SDS011;25082;50.870;0.022;2022-10-31T08:27:53;4.50;;;1.50;;
37805;SDS011;25082;50.870;0.022;2022-10-31T08:30:20;2.67;;;1.20;;
37805;SDS011;25082;50.870;0.022;2022-10-31T08:32:47;5.45;;;1.15;;
37805;SDS011;25082;50.870;0.022;2022-10-31T08:35:21;3.65;;;1.38;;
37805;SDS011;25082;50.870;0.022;2022-10-31T08:37:51;3.60;;;1.33;;
37805;SDS011;25082;50.870;0.022;2022-10-31T08:40:19;4.00;;;1.80;;
37805;SDS011;25082;50.870;0.022;2022-10-31T08:42:44;7.03;;;1.40;;
37805;SDS011;25082;50.870;0.022;2022-10-31T08:45:10;6.15;;;1.65;;
37805;SDS011;25082;50.870;0.022;2022-10-31T08:47:36;4.03;;;1.02;;
37805;SDS011;25082;50.870;0.022;2022-10-31T08:50:02;3.88;;;1.30;;
37805;SDS011;25082;50.870;0.022;2022-10-31T08:52:28;4.47;;;1.48;;
37805;SDS011;25082;50.870;0.022;2022-10-31T08:54:53;4.05;;;1.15;;
37805;SDS011;25082;50.870;0.022;2022-10-31T08:57:19;3.28;;;1.40;;
37805;SDS011;25082;50.870;0.022;2022-10-31T08:59:45;6.43;;;1.80;;
37805;SDS011;25082;50.870;0.022;2022-10-31T09:02:11;4.45;;;1.60;;
37805;SDS011;25082;50.870;0.022;2022-10-31T09:04:36;4.88;;;1.80;;
37805;SDS011;25082;50.870;0.022;2022-10-31T09:07:02;4.32;;;1.13;;
37805;SDS011;25082;50.870;0.022;2022-10-31T09:09:28;5.10;;;1.50;;
37805;SDS011;25082;50.870;0.022;2022-10-31T09:11:53;5.38;;;1.42;;
37805;SDS011;25082;50.870;0.022;2022-10-31T09:14:19;4.55;;;1.52;;
37805;SDS011;25082;50.870;0.022;2022-10-31T09:16:45;4.45;;;1.73;;
37805;SDS011;25082;50.870;0.022;2022-10-31T09:19:10;2.92;;;1.08;;
37805;SDS011;25082;50.870;0.022;2022-10-31T09:21:36;5.82;;;1.27;;
37805;SDS011;25082;50.870;0.022;2022-10-31T09:24:02;4.00;;;1.33;;
37805;SDS011;25082;50.870;0.022;2022-10-31T09:26:28;4.60;;;1.40;;
37805;SDS011;25082;50.870;0.022;2022-10-31T09:28:53;9.05;;;1.58;;
37805;SDS011;25082;50.870;0.022;2022-10-31T09:31:19;6.28;;;1.00;;
37805;SDS011;25082;50.870;0.022;2022-10-31T09:33:45;2.78;;;1.33;;
37805;SDS011;25082;50.870;0.022;2022-10-31T09:36:10;3.97;;;1.65;;
37805;SDS011;25082;50.870;0.022;2022-10-31T09:38:36;5.30;;;1.20;;
37805;SDS011;25082;50.870;0.022;2022-10-31T09:49:07;5.10;;;1.70;;
37805;SDS011;25082;50.870;0.022;2022-10-31T09:51:45;2.72;;;1.10;;
37805;SDS011;25082;50.870;0.022;2022-10-31T09:54:42;4.10;;;1.10;;
37805;SDS011;25082;50.870;0.022;2022-10-31T09:57:13;3.97;;;1.20;;
37805;SDS011;25082;50.870;0.022;2022-10-31T09:59:41;4.40;;;1.25;;
37805;SDS011;25082;50.870;0.022;2022-10-31T10:02:20;6.18;;;1.60;;
37805;SDS011;25082;50.870;0.022;2022-10-31T10:04:55;4.43;;;1.48;;
37805;SDS011;25082;50.870;0.022;2022-10-31T10:07:32;4.30;;;1.08;;
37805;SDS011;25082;50.870;0.022;2022-10-31T10:10:13;4.95;;;1.40;;
37805;SDS011;25082;50.870;0.022;2022-10-31T10:15:33;4.90;;;1.58;;
37805;SDS011;25082;50.870;0.022;2022-10-31T10:23:22;3.95;;;1.38;;
37805;SDS011;25082;50.870;0.022;2022-10-31T10:25:53;3.97;;;1.48;;
37805;SDS011;25082;50.870;0.022;2022-10-31T10:28:38;12.68;;;2.80;;
37805;SDS011;25082;50.870;0.022;2022-10-31T10:33:40;5.18;;;1.70;;
37805;SDS011;25082;50.870;0.022;2022-10-31T10:36:30;8.88;;;1.75;;
37805;SDS011;25082;50.870;0.022;2022-10-31T10:39:07;4.63;;;1.73;;
37805;SDS011;25082;50.870;0.022;2022-10-31T10:41:44;6.78;;;2.00;;
37805;SDS011;25082;50.870;0.022;2022-10-31T10:44:12;4.82;;;1.33;;
37805;SDS011;25082;50.870;0.022;2022-10-31T10:46:41;5.00;;;1.50;;
37805;SDS011;25082;50.870;0.022;2022-10-31T10:49:37;5.15;;;1.42;;
37805;SDS011;25082;50.870;0.022;2022-10-31T10:58:13;2.50;;;1.20;;
37805;SDS011;25082;50.870;0.022;2022-10-31T11:00:42;4.82;;;1.42;;
37805;SDS011;25082;50.870;0.022;2022-10-31T11:03:11;4.00;;;1.33;;
37805;SDS011;25082;50.870;0.022;2022-10-31T11:13:57;3.33;;;1.10;;
37805;SDS011;25082;50.870;0.022;2022-10-31T11:16:47;4.85;;;1.60;;
37805;SDS011;25082;50.870;0.022;2022-10-31T11:19:23;2.75;;;1.15;;
37805;SDS011;25082;50.870;0.022;2022-10-31T11:21:53;3.85;;;1.17;;
37805;SDS011;25082;50.870;0.022;2022-10-31T11:24:39;3.60;;;1.20;;
37805;SDS011;25082;50.870;0.022;2022-10-31T11:27:16;4.00;;;1.08;;
37805;SDS011;25082;50.870;0.022;2022-10-31T11:29:45;2.08;;;0.93;;
37805;SDS011;25082;50.870;0.022;2022-10-31T11:32:19;3.38;;;1.38;;
37805;SDS011;25082;50.870;0.022;2022-10-31T11:34:47;3.72;;;1.05;;
37805;SDS011;25082;50.870;0.022;2022-10-31T11:37:26;2.90;;;1.10;;
37805;SDS011;25082;50.870;0.022;2022-10-31T11:39:58;3.55;;;0.80;;
37805;SDS011;25082;50.870;0.022;2022-10-31T11:42:35;2.88;;;0.70;;
37805;SDS011;25082;50.870;0.022;2022-10-31T11:45:16;4.68;;;0.90;;
37805;SDS011;25082;50.870;0.022;2022-10-31T11:47:56;4.70;;;1.33;;
37805;SDS011;25082;50.870;0.022;2022-10-31T11:50:34;6.30;;;1.20;;
37805;SDS011;25082;50.870;0.022;2022-10-31T11:53:16;4.88;;;1.10;;
37805;SDS011;25082;50.870;0.022;2022-10-31T11:58:27;4.38;;;1.38;;
37805;SDS011;25082;50.870;0.022;2022-10-31T12:00:54;3.58;;;1.13;;
37805;SDS011;25082;50.870;0.022;2022-10-31T12:08:30;7.00;;;1.25;;
37805;SDS011;25082;50.870;0.022;2022-10-31T12:13:42;6.32;;;1.35;;
37805;SDS011;25082;50.870;0.022;2022-10-31T12:24:54;5.47;;;2.00;;
37805;SDS011;25082;50.870;0.022;2022-10-31T12:35:40;21.10;;;3.72;;
37805;SDS011;25082;50.870;0.022;2022-10-31T12:38:15;21.85;;;3.83;;
37805;SDS011;25082;50.870;0.022;2022-10-31T12:41:09;31.25;;;5.55;;
37805;SDS011;25082;50.870;0.022;2022-10-31T12:44:01;45.90;;;6.97;;
37805;SDS011;25082;50.870;0.022;2022-10-31T12:57:40;80.00;;;12.25;;
37805;SDS011;25082;50.870;0.022;2022-10-31T13:00:14;71.68;;;11.77;;
37805;SDS011;25082;50.870;0.022;2022-10-31T13:02:57;96.00;;;16.02;;
37805;SDS011;25082;50.870;0.022;2022-10-31T13:05:27;83.53;;;14.63;;
37805;SDS011;25082;50.870;0.022;2022-10-31T13:11:15;95.60;;;15.23;;
37805;SDS011;25082;50.870;0.022;2022-10-31T13:16:52;77.15;;;13.95;;
37805;SDS011;25082;50.870;0.022;2022-10-31T13:19:23;84.40;;;15.52;;
37805;SDS011;25082;50.870;0.022;2022-10-31T13:24:27;101.75;;;13.75;;
37805;SDS011;25082;50.870;0.022;2022-10-31T13:27:11;136.15;;;13.57;;
37805;SDS011;25082;50.870;0.022;2022-10-31T13:32:22;279.52;;;24.50;;
37805;SDS011;25082;50.870;0.022;2022-10-31T13:34:51;138.55;;;12.10;;
37805;SDS011;25082;50.870;0.022;2022-10-31T13:37:29;138.02;;;15.02;;
37805;SDS011;25082;50.870;0.022;2022-10-31T13:45:12;80.95;;;11.68;;
37805;SDS011;25082;50.870;0.022;2022-10-31T13:47:40;81.93;;;10.93;;
37805;SDS011;25082;50.870;0.022;2022-10-31T13:58:22;61.63;;;8.80;;
37805;SDS011;25082;50.870;0.022;2022-10-31T14:01:01;68.38;;;9.57;;
37805;SDS011;25082;50.870;0.022;2022-10-31T14:03:35;70.32;;;8.93;;
37805;SDS011;25082;50.870;0.022;2022-10-31T14:06:03;50.08;;;6.72;;
37805;SDS011;25082;50.870;0.022;2022-10-31T14:08:31;42.47;;;6.70;;
37805;SDS011;25082;50.870;0.022;2022-10-31T14:11:00;36.10;;;5.97;;
37805;SDS011;25082;50.870;0.022;2022-10-31T14:13:29;43.35;;;5.72;;
37805;SDS011;25082;50.870;0.022;2022-10-31T14:20:59;48.05;;;6.30;;
37805;SDS011;25082;50.870;0.022;2022-10-31T14:26:07;46.50;;;6.60;;
37805;SDS011;25082;50.870;0.022;2022-10-31T14:28:41;37.85;;;5.93;;
37805;SDS011;25082;50.870;0.022;2022-10-31T14:31:24;38.35;;;7.05;;
37805;SDS011;25082;50.870;0.022;2022-10-31T14:33:52;37.38;;;5.40;;
37805;SDS011;25082;50.870;0.022;2022-10-31T14:36:19;44.78;;;6.63;;
37805;SDS011;25082;50.870;0.022;2022-10-31T14:47:11;38.83;;;5.43;;
37805;SDS011;25082;50.870;0.022;2022-10-31T14:50:13;30.73;;;5.45;;
37805;SDS011;25082;50.870;0.022;2022-10-31T14:52:43;38.05;;;5.20;;
37805;SDS011;25082;50.870;0.022;2022-10-31T14:55:12;39.38;;;5.47;;
37805;SDS011;25082;50.870;0.022;2022-10-31T14:57:41;24.13;;;5.35;;
37805;SDS011;25082;50.870;0.022;2022-10-31T15:00:18;32.00;;;4.72;;
37805;SDS011;25082;50.870;0.022;2022-10-31T15:05:40;20.45;;;3.58;;
37805;SDS011;25082;50.870;0.022;2022-10-31T15:08:13;15.48;;;3.83;;
37805;SDS011;25082;50.870;0.022;2022-10-31T15:10:51;22.67;;;3.40;;
37805;SDS011;25082;50.870;0.022;2022-10-31T15:13:18;27.08;;;5.07;;
37805;SDS011;25082;50.870;0.022;2022-10-31T15:15:49;23.95;;;4.75;;
37805;SDS011;25082;50.870;0.022;2022-10-31T15:18:21;18.08;;;3.35;;
37805;SDS011;25082;50.870;0.022;2022-10-31T15:20:51;25.08;;;3.92;;
37805;SDS011;25082;50.870;0.022;2022-10-31T15:23:23;17.85;;;4.15;;
37805;SDS011;25082;50.870;0.022;2022-10-31T15:25:57;12.77;;;3.53;;
37805;SDS011;25082;50.870;0.022;2022-10-31T15:28:25;16.10;;;3.67;;
37805;SDS011;25082;50.870;0.022;2022-10-31T15:30:55;18.75;;;3.47;;
37805;SDS011;25082;50.870;0.022;2022-10-31T15:33:26;14.85;;;4.05;;
37805;SDS011;25082;50.870;0.022;2022-10-31T15:35:57;14.88;;;3.88;;
37805;SDS011;25082;50.870;0.022;2022-10-31T15:38:24;20.25;;;3.80;;
37805;SDS011;25082;50.870;0.022;2022-10-31T15:40:55;14.45;;;3.72;;
37805;SDS011;25082;50.870;0.022;2022-10-31T15:43:29;17.75;;;3.72;;
37805;SDS011;25082;50.870;0.022;2022-10-31T15:46:00;14.18;;;3.40;;
37805;SDS011;25082;50.870;0.022;2022-10-31T15:48:27;9.68;;;3.17;;
37805;SDS011;25082;50.870;0.022;2022-10-31T15:50:56;10.90;;;3.38;;
37805;SDS011;25082;50.870;0.022;2022-10-31T15:53:27;12.35;;;3.55;;
37805;SDS011;25082;50.870;0.022;2022-10-31T15:56:19;17.02;;;3.50;;
37805;SDS011;25082;50.870;0.022;2022-10-31T15:58:51;9.73;;;2.92;;
37805;SDS011;25082;50.870;0.022;2022-10-31T16:01:28;9.55;;;3.03;;
37805;SDS011;25082;50.870;0.022;2022-10-31T16:06:36;8.77;;;3.10;;
37805;SDS011;25082;50.870;0.022;2022-10-31T16:09:03;20.98;;;3.75;;
37805;SDS011;25082;50.870;0.022;2022-10-31T16:11:43;13.75;;;3.17;;
37805;SDS011;25082;50.870;0.022;2022-10-31T16:16:42;13.07;;;3.75;;
37805;SDS011;25082;50.870;0.022;2022-10-31T16:19:15;9.38;;;2.78;;
37805;SDS011;25082;50.870;0.022;2022-10-31T16:22:04;5.13;;;2.55;;
37805;SDS011;25082;50.870;0.022;2022-10-31T16:24:32;12.95;;;2.58;;
37805;SDS011;25082;50.870;0.022;2022-10-31T16:27:06;10.15;;;3.78;;
37805;SDS011;25082;50.870;0.022;2022-10-31T16:29:45;9.52;;;3.50;;
37805;SDS011;25082;50.870;0.022;2022-10-31T16:37:56;10.07;;;3.25;;
37805;SDS011;25082;50.870;0.022;2022-10-31T16:40:22;9.43;;;3.08;;
37805;SDS011;25082;50.870;0.022;2022-10-31T16:42:48;9.85;;;3.20;;
37805;SDS011;25082;50.870;0.022;2022-10-31T16:45:16;10.55;;;3.33;;
37805;SDS011;25082;50.870;0.022;2022-10-31T16:47:46;11.20;;;4.35;;
37805;SDS011;25082;50.870;0.022;2022-10-31T16:50:14;11.43;;;3.50;;
37805;SDS011;25082;50.870;0.022;2022-10-31T16:52:50;8.07;;;3.50;;
37805;SDS011;25082;50.870;0.022;2022-10-31T16:55:17;9.15;;;3.67;;
37805;SDS011;25082;50.870;0.022;2022-10-31T16:57:46;9.43;;;3.58;;
37805;SDS011;25082;50.870;0.022;2022-10-31T17:00:24;9.90;;;3.90;;
37805;SDS011;25082;50.870;0.022;2022-10-31T17:02:51;9.18;;;3.53;;
37805;SDS011;25082;50.870;0.022;2022-10-31T17:05:21;8.10;;;3.22;;
37805;SDS011;25082;50.870;0.022;2022-10-31T17:07:53;8.98;;;3.25;;
37805;SDS011;25082;50.870;0.022;2022-10-31T17:10:23;12.27;;;3.53;;
37805;SDS011;25082;50.870;0.022;2022-10-31T17:12:50;13.20;;;3.25;;
37805;SDS011;25082;50.870;0.022;2022-10-31T17:15:17;12.88;;;4.57;;
37805;SDS011;25082;50.870;0.022;2022-10-31T17:17:47;11.52;;;3.67;;
37805;SDS011;25082;50.870;0.022;2022-10-31T17:20:16;9.32;;;3.60;;
37805;SDS011;25082;50.870;0.022;2022-10-31T17:22:50;11.20;;;3.88;;
37805;SDS011;25082;50.870;0.022;2022-10-31T17:25:19;12.05;;;4.60;;
37805;SDS011;25082;50.870;0.022;2022-10-31T17:27:47;13.38;;;5.50;;
37805;SDS011;25082;50.870;0.022;2022-10-31T17:30:14;13.13;;;4.22;;
37805;SDS011;25082;50.870;0.022;2022-10-31T17:32:40;10.13;;;4.10;;
37805;SDS011;25082;50.870;0.022;2022-10-31T17:35:10;9.55;;;3.95;;
37805;SDS011;25082;50.870;0.022;2022-10-31T17:37:37;16.15;;;4.57;;
37805;SDS011;25082;50.870;0.022;2022-10-31T17:40:03;12.05;;;4.03;;
37805;SDS011;25082;50.870;0.022;2022-10-31T17:42:30;7.50;;;4.03;;
37805;SDS011;25082;50.870;0.022;2022-10-31T17:44:56;8.55;;;3.95;;